Avera, Georgia
Current Conditions -  °F | °C
As of 11:15 AM on Thursday 29 Jan 2015 (Local Time) from KOKZ Reporting Station
Clear Clear  
Wind Chill:   Ceiling: Unl
Heat Index: 10°   Visibility: 10mi
Dew Point: -2°   Wind: 7mph
Humidity: 43%   Direction: 210°SSW
Pressure: 30.36"   Gusts: NA
Location:  33.19°N, 82.53°W
Report Text: KOKZ 291615Z AUTO 21006KT 10SM CLR 10/M02 A3036 RMK AO2 T00981024
Loading
Personal Weather Stations






























Interactive Weather Map New forecast layout! Learn more

10-Day Weather Forecast

Advertisements
Track Severe Weather on mobile